sensor_id;sensor_type;location;lat;lon;timestamp;pressure;altitude;pressure_sealevel;temperature;humidity
46722;BME280;32455;43.430;23.136;2023-04-09T00:00:41;98549.50;;;6.49;100.00
46722;BME280;32455;43.430;23.136;2023-04-09T00:03:27;98521.56;;;6.30;100.00
46722;BME280;32455;43.430;23.136;2023-04-09T00:06:12;98542.97;;;6.37;100.00
46722;BME280;32455;43.430;23.136;2023-04-09T00:08:57;98526.22;;;6.43;100.00
46722;BME280;32455;43.430;23.136;2023-04-09T00:11:43;98543.91;;;6.44;100.00
46722;BME280;32455;43.430;23.136;2023-04-09T00:14:28;98534.25;;;6.43;100.00
46722;BME280;32455;43.430;23.136;2023-04-09T00:17:13;98537.34;;;6.46;100.00
46722;BME280;32455;43.430;23.136;2023-04-09T00:19:58;98544.03;;;6.57;100.00
46722;BME280;32455;43.430;23.136;2023-04-09T00:22:44;98542.97;;;6.51;100.00
46722;BME280;32455;43.430;23.136;2023-04-09T00:25:29;98537.16;;;6.48;100.00
46722;BME280;32455;43.430;23.136;2023-04-09T00:28:14;98529.31;;;6.46;100.00
46722;BME280;32455;43.430;23.136;2023-04-09T00:31:01;98531.84;;;6.48;100.00
46722;BME280;32455;43.430;23.136;2023-04-09T00:33:46;98555.66;;;6.49;100.00
46722;BME280;32455;43.430;23.136;2023-04-09T00:36:31;98541.69;;;6.47;100.00
46722;BME280;32455;43.430;23.136;2023-04-09T00:39:17;98536.91;;;6.43;100.00
46722;BME280;32455;43.430;23.136;2023-04-09T00:42:02;98540.22;;;6.45;100.00
46722;BME280;32455;43.430;23.136;2023-04-09T00:44:47;98538.19;;;6.47;100.00
46722;BME280;32455;43.430;23.136;2023-04-09T00:47:33;98554.94;;;6.56;100.00
46722;BME280;32455;43.430;23.136;2023-04-09T00:50:20;98551.16;;;6.50;100.00
46722;BME280;32455;43.430;23.136;2023-04-09T00:53:06;98553.72;;;6.58;100.00
46722;BME280;32455;43.430;23.136;2023-04-09T00:55:52;98536.34;;;6.47;100.00
46722;BME280;32455;43.430;23.136;2023-04-09T00:58:39;98550.97;;;6.51;100.00
46722;BME280;32455;43.430;23.136;2023-04-09T01:01:25;98559.31;;;6.63;100.00
46722;BME280;32455;43.430;23.136;2023-04-09T01:04:10;98548.94;;;6.53;100.00
46722;BME280;32455;43.430;23.136;2023-04-09T01:07:04;98549.50;;;6.49;100.00
46722;BME280;32455;43.430;23.136;2023-04-09T01:13:03;98570.56;;;6.59;100.00
46722;BME280;32455;43.430;23.136;2023-04-09T01:15:59;98547.94;;;6.40;100.00
46722;BME280;32455;43.430;23.136;2023-04-09T01:19:01;98557.88;;;6.46;100.00
46722;BME280;32455;43.430;23.136;2023-04-09T01:21:48;98565.88;;;6.46;100.00
46722;BME280;32455;43.430;23.136;2023-04-09T01:24:59;98567.25;;;6.57;100.00
46722;BME280;32455;43.430;23.136;2023-04-09T01:30:59;98571.66;;;6.64;100.00
46722;BME280;32455;43.430;23.136;2023-04-09T01:33:45;98570.84;;;6.64;100.00
46722;BME280;32455;43.430;23.136;2023-04-09T01:36:32;98559.97;;;6.65;100.00
46722;BME280;32455;43.430;23.136;2023-04-09T01:39:18;98572.94;;;6.68;100.00
46722;BME280;32455;43.430;23.136;2023-04-09T01:42:04;98569.81;;;6.65;100.00
46722;BME280;32455;43.430;23.136;2023-04-09T01:44:53;98556.75;;;6.55;100.00
46722;BME280;32455;43.430;23.136;2023-04-09T01:47:39;98567.31;;;6.63;100.00
46722;BME280;32455;43.430;23.136;2023-04-09T01:50:26;98548.72;;;6.55;100.00
46722;BME280;32455;43.430;23.136;2023-04-09T01:53:11;98562.84;;;6.64;100.00
46722;BME280;32455;43.430;23.136;2023-04-09T01:56:00;98539.41;;;6.30;100.00
46722;BME280;32455;43.430;23.136;2023-04-09T01:58:46;98551.53;;;6.47;100.00
46722;BME280;32455;43.430;23.136;2023-04-09T02:01:48;98573.88;;;6.61;100.00
46722;BME280;32455;43.430;23.136;2023-04-09T02:04:44;98509.41;;;6.27;100.00
46722;BME280;32455;43.430;23.136;2023-04-09T02:07:40;98567.97;;;6.50;100.00
46722;BME280;32455;43.430;23.136;2023-04-09T02:10:29;98572.69;;;6.48;100.00
46722;BME280;32455;43.430;23.136;2023-04-09T02:13:16;98545.47;;;6.38;100.00
46722;BME280;32455;43.430;23.136;2023-04-09T02:16:03;98562.94;;;6.56;100.00
46722;BME280;32455;43.430;23.136;2023-04-09T02:18:54;98541.63;;;6.62;100.00
46722;BME280;32455;43.430;23.136;2023-04-09T02:21:45;98557.50;;;6.49;100.00
46722;BME280;32455;43.430;23.136;2023-04-09T02:24:30;98552.44;;;6.54;100.00
46722;BME280;32455;43.430;23.136;2023-04-09T02:27:16;98550.56;;;6.55;100.00
46722;BME280;32455;43.430;23.136;2023-04-09T02:30:01;98547.84;;;6.48;100.00
46722;BME280;32455;43.430;23.136;2023-04-09T02:32:46;98546.94;;;6.41;100.00
46722;BME280;32455;43.430;23.136;2023-04-09T02:35:32;98549.22;;;6.44;100.00
46722;BME280;32455;43.430;23.136;2023-04-09T02:38:17;98566.59;;;6.55;100.00
46722;BME280;32455;43.430;23.136;2023-04-09T02:41:03;98548.09;;;6.53;100.00
46722;BME280;32455;43.430;23.136;2023-04-09T02:43:48;98541.69;;;6.47;100.00
46722;BME280;32455;43.430;23.136;2023-04-09T02:46:34;98555.19;;;6.61;100.00
46722;BME280;32455;43.430;23.136;2023-04-09T02:49:19;98554.53;;;6.59;100.00
46722;BME280;32455;43.430;23.136;2023-04-09T02:52:04;98552.53;;;6.61;100.00
46722;BME280;32455;43.430;23.136;2023-04-09T02:54:51;98543.03;;;6.58;100.00
46722;BME280;32455;43.430;23.136;2023-04-09T02:57:36;98543.69;;;6.60;100.00
46722;BME280;32455;43.430;23.136;2023-04-09T03:00:22;98557.09;;;6.67;100.00
46722;BME280;32455;43.430;23.136;2023-04-09T03:03:07;98556.94;;;6.68;100.00
46722;BME280;32455;43.430;23.136;2023-04-09T03:05:53;98547.53;;;6.72;100.00
46722;BME280;32455;43.430;23.136;2023-04-09T03:08:38;98541.28;;;6.65;100.00
46722;BME280;32455;43.430;23.136;2023-04-09T03:11:23;98551.69;;;6.60;100.00
46722;BME280;32455;43.430;23.136;2023-04-09T03:14:09;98551.41;;;6.55;100.00
46722;BME280;32455;43.430;23.136;2023-04-09T03:16:54;98555.06;;;6.69;100.00
46722;BME280;32455;43.430;23.136;2023-04-09T03:19:39;98556.53;;;6.71;100.00
46722;BME280;32455;43.430;23.136;2023-04-09T03:22:25;98540.44;;;6.65;100.00
46722;BME280;32455;43.430;23.136;2023-04-09T03:25:10;98553.34;;;6.61;100.00
46722;BME280;32455;43.430;23.136;2023-04-09T03:27:55;98554.69;;;6.72;100.00
46722;BME280;32455;43.430;23.136;2023-04-09T03:30:39;98535.97;;;6.72;100.00
46722;BME280;32455;43.430;23.136;2023-04-09T03:33:24;98539.75;;;6.77;100.00
46722;BME280;32455;43.430;23.136;2023-04-09T03:36:09;98543.28;;;6.63;100.00
46722;BME280;32455;43.430;23.136;2023-04-09T03:38:55;98542.06;;;6.44;100.00
46722;BME280;32455;43.430;23.136;2023-04-09T03:41:40;98537.06;;;6.41;100.00
46722;BME280;32455;43.430;23.136;2023-04-09T03:44:26;98560.19;;;6.49;100.00
46722;BME280;32455;43.430;23.136;2023-04-09T03:47:11;98557.31;;;6.50;100.00
46722;BME280;32455;43.430;23.136;2023-04-09T03:49:57;98545.03;;;6.35;100.00
46722;BME280;32455;43.430;23.136;2023-04-09T03:52:42;98503.00;;;6.07;100.00
46722;BME280;32455;43.430;23.136;2023-04-09T03:55:28;98567.28;;;6.27;100.00
46722;BME280;32455;43.430;23.136;2023-04-09T03:58:13;98572.44;;;6.43;100.00
46722;BME280;32455;43.430;23.136;2023-04-09T04:00:59;98570.69;;;6.21;100.00
46722;BME280;32455;43.430;23.136;2023-04-09T04:03:45;98563.13;;;6.24;100.00
46722;BME280;32455;43.430;23.136;2023-04-09T04:06:32;98569.50;;;6.38;100.00
46722;BME280;32455;43.430;23.136;2023-04-09T04:09:19;98563.75;;;6.56;100.00
46722;BME280;32455;43.430;23.136;2023-04-09T04:12:04;98566.78;;;6.53;100.00
46722;BME280;32455;43.430;23.136;2023-04-09T04:14:50;98575.56;;;6.47;100.00
46722;BME280;32455;43.430;23.136;2023-04-09T04:17:35;98557.50;;;6.49;100.00
46722;BME280;32455;43.430;23.136;2023-04-09T04:20:20;98554.72;;;6.57;100.00
46722;BME280;32455;43.430;23.136;2023-04-09T04:23:06;98551.34;;;6.34;100.00
46722;BME280;32455;43.430;23.136;2023-04-09T04:25:51;98561.38;;;6.46;100.00
46722;BME280;32455;43.430;23.136;2023-04-09T04:28:41;98576.38;;;6.47;100.00
46722;BME280;32455;43.430;23.136;2023-04-09T04:31:26;98571.63;;;6.43;100.00
46722;BME280;32455;43.430;23.136;2023-04-09T04:34:12;98573.97;;;6.52;100.00
46722;BME280;32455;43.430;23.136;2023-04-09T04:36:57;98568.56;;;6.31;100.00
46722;BME280;32455;43.430;23.136;2023-04-09T04:39:42;98563.88;;;6.33;100.00
46722;BME280;32455;43.430;23.136;2023-04-09T04:42:28;98579.97;;;6.40;100.00
46722;BME280;32455;43.430;23.136;2023-04-09T04:45:14;98582.00;;;6.38;100.00
46722;BME280;32455;43.430;23.136;2023-04-09T04:47:59;98588.44;;;6.43;100.00
46722;BME280;32455;43.430;23.136;2023-04-09T04:50:45;98573.72;;;6.33;100.00
46722;BME280;32455;43.430;23.136;2023-04-09T04:53:30;98590.00;;;6.38;100.00
46722;BME280;32455;43.430;23.136;2023-04-09T04:56:16;98579.94;;;6.55;100.00
46722;BME280;32455;43.430;23.136;2023-04-09T04:59:01;98577.41;;;6.32;100.00
46722;BME280;32455;43.430;23.136;2023-04-09T05:01:47;98598.94;;;6.45;100.00
46722;BME280;32455;43.430;23.136;2023-04-09T05:04:33;98595.69;;;6.49;100.00
46722;BME280;32455;43.430;23.136;2023-04-09T05:07:19;98587.34;;;6.52;100.00
46722;BME280;32455;43.430;23.136;2023-04-09T05:10:05;98586.31;;;6.53;100.00
46722;BME280;32455;43.430;23.136;2023-04-09T05:12:50;98596.72;;;6.48;100.00
46722;BME280;32455;43.430;23.136;2023-04-09T05:15:39;98602.41;;;6.60;100.00
46722;BME280;32455;43.430;23.136;2023-04-09T05:18:25;98599.56;;;6.62;100.00
46722;BME280;32455;43.430;23.136;2023-04-09T05:21:10;98604.28;;;6.60;100.00
46722;BME280;32455;43.430;23.136;2023-04-09T05:23:57;98584.13;;;6.27;100.00
46722;BME280;32455;43.430;23.136;2023-04-09T05:26:43;98589.38;;;6.36;100.00
46722;BME280;32455;43.430;23.136;2023-04-09T05:29:28;98588.84;;;6.25;100.00
46722;BME280;32455;43.430;23.136;2023-04-09T05:32:13;98589.91;;;6.16;100.00
46722;BME280;32455;43.430;23.136;2023-04-09T05:34:59;98594.50;;;6.08;100.00
46722;BME280;32455;43.430;23.136;2023-04-09T05:37:44;98603.81;;;6.26;100.00
46722;BME280;32455;43.430;23.136;2023-04-09T05:40:29;98604.47;;;6.28;100.00
46722;BME280;32455;43.430;23.136;2023-04-09T05:43:15;98605.84;;;6.24;100.00
46722;BME280;32455;43.430;23.136;2023-04-09T05:46:00;98586.88;;;6.19;100.00
46722;BME280;32455;43.430;23.136;2023-04-09T05:48:45;98594.91;;;6.19;100.00
46722;BME280;32455;43.430;23.136;2023-04-09T05:51:30;98588.25;;;6.15;100.00
46722;BME280;32455;43.430;23.136;2023-04-09T05:54:16;98588.53;;;6.20;100.00
46722;BME280;32455;43.430;23.136;2023-04-09T05:57:01;98586.53;;;6.22;100.00
46722;BME280;32455;43.430;23.136;2023-04-09T05:59:47;98576.28;;;6.41;100.00
46722;BME280;32455;43.430;23.136;2023-04-09T06:02:32;98576.56;;;6.46;100.00
46722;BME280;32455;43.430;23.136;2023-04-09T06:05:17;98575.72;;;6.45;100.00
46722;BME280;32455;43.430;23.136;2023-04-09T06:08:03;98594.88;;;6.49;100.00
46722;BME280;32455;43.430;23.136;2023-04-09T06:10:48;98597.91;;;6.46;100.00
46722;BME280;32455;43.430;23.136;2023-04-09T06:13:33;98591.47;;;6.40;100.00
46722;BME280;32455;43.430;23.136;2023-04-09T06:16:19;98591.28;;;6.42;100.00
46722;BME280;32455;43.430;23.136;2023-04-09T06:19:04;98610.34;;;6.53;100.00
46722;BME280;32455;43.430;23.136;2023-04-09T06:21:50;98591.94;;;6.44;100.00
46722;BME280;32455;43.430;23.136;2023-04-09T06:24:35;98592.72;;;6.59;100.00
46722;BME280;32455;43.430;23.136;2023-04-09T06:27:21;98619.72;;;6.64;100.00
46722;BME280;32455;43.430;23.136;2023-04-09T06:30:07;98602.78;;;6.57;100.00
46722;BME280;32455;43.430;23.136;2023-04-09T06:32:52;98617.88;;;6.65;100.00
46722;BME280;32455;43.430;23.136;2023-04-09T06:35:37;98608.31;;;6.56;100.00
46722;BME280;32455;43.430;23.136;2023-04-09T06:38:23;98623.84;;;6.67;100.00
46722;BME280;32455;43.430;23.136;2023-04-09T06:41:08;98616.50;;;6.54;100.00
46722;BME280;32455;43.430;23.136;2023-04-09T06:43:57;98634.25;;;6.62;100.00
46722;BME280;32455;43.430;23.136;2023-04-09T06:46:42;98620.75;;;6.48;100.00
46722;BME280;32455;43.430;23.136;2023-04-09T06:49:27;98625.53;;;6.53;100.00
46722;BME280;32455;43.430;23.136;2023-04-09T06:52:12;98632.50;;;6.54;100.00
46722;BME280;32455;43.430;23.136;2023-04-09T06:54:57;98619.66;;;6.43;100.00
46722;BME280;32455;43.430;23.136;2023-04-09T06:57:42;98617.41;;;6.61;100.00
46722;BME280;32455;43.430;23.136;2023-04-09T07:00:27;98626.56;;;6.52;100.00
46722;BME280;32455;43.430;23.136;2023-04-09T07:03:13;98627.47;;;6.44;100.00
46722;BME280;32455;43.430;23.136;2023-04-09T07:05:58;98606.84;;;6.53;100.00
46722;BME280;32455;43.430;23.136;2023-04-09T07:08:44;98619.44;;;6.74;100.00
46722;BME280;32455;43.430;23.136;2023-04-09T07:11:30;98622.75;;;6.61;100.00
46722;BME280;32455;43.430;23.136;2023-04-09T07:14:15;98632.16;;;6.57;100.00
46722;BME280;32455;43.430;23.136;2023-04-09T07:17:00;98626.34;;;6.68;100.00
46722;BME280;32455;43.430;23.136;2023-04-09T07:19:45;98627.75;;;6.64;100.00
46722;BME280;32455;43.430;23.136;2023-04-09T07:22:31;98640.53;;;6.69;100.00
46722;BME280;32455;43.430;23.136;2023-04-09T07:25:16;98628.06;;;6.76;100.00
46722;BME280;32455;43.430;23.136;2023-04-09T07:28:02;98637.19;;;6.82;100.00
46722;BME280;32455;43.430;23.136;2023-04-09T07:30:48;98650.97;;;7.00;100.00
46722;BME280;32455;43.430;23.136;2023-04-09T07:33:33;98638.63;;;6.99;100.00
46722;BME280;32455;43.430;23.136;2023-04-09T07:36:18;98636.94;;;6.98;100.00
46722;BME280;32455;43.430;23.136;2023-04-09T07:39:04;98650.03;;;7.08;100.00
46722;BME280;32455;43.430;23.136;2023-04-09T07:41:49;98644.81;;;7.21;100.00
46722;BME280;32455;43.430;23.136;2023-04-09T07:44:35;98627.19;;;7.05;100.00
46722;BME280;32455;43.430;23.136;2023-04-09T07:47:21;98622.75;;;7.12;100.00
46722;BME280;32455;43.430;23.136;2023-04-09T07:50:08;98635.16;;;7.20;100.00
46722;BME280;32455;43.430;23.136;2023-04-09T07:52:54;98634.88;;;7.15;100.00
46722;BME280;32455;43.430;23.136;2023-04-09T07:55:39;98661.25;;;7.61;100.00
46722;BME280;32455;43.430;23.136;2023-04-09T07:58:25;98632.06;;;7.38;100.00
46722;BME280;32455;43.430;23.136;2023-04-09T08:01:10;98638.94;;;7.11;100.00
46722;BME280;32455;43.430;23.136;2023-04-09T08:03:56;98648.53;;;7.20;100.00
46722;BME280;32455;43.430;23.136;2023-04-09T08:06:41;98641.22;;;7.28;100.00
46722;BME280;32455;43.430;23.136;2023-04-09T08:09:27;98649.84;;;7.31;100.00
46722;BME280;32455;43.430;23.136;2023-04-09T08:12:12;98659.81;;;7.37;100.00
46722;BME280;32455;43.430;23.136;2023-04-09T08:14:58;98654.13;;;7.25;100.00
46722;BME280;32455;43.430;23.136;2023-04-09T08:17:43;98653.03;;;7.19;100.00
46722;BME280;32455;43.430;23.136;2023-04-09T08:20:28;98668.22;;;7.55;100.00
46722;BME280;32455;43.430;23.136;2023-04-09T08:23:16;98656.94;;;7.60;100.00
46722;BME280;32455;43.430;23.136;2023-04-09T08:26:02;98673.94;;;7.52;100.00
46722;BME280;32455;43.430;23.136;2023-04-09T08:28:47;98673.69;;;7.68;100.00
46722;BME280;32455;43.430;23.136;2023-04-09T08:31:33;98669.28;;;7.82;100.00
46722;BME280;32455;43.430;23.136;2023-04-09T08:34:18;98662.75;;;7.63;100.00
46722;BME280;32455;43.430;23.136;2023-04-09T08:37:05;98683.34;;;7.69;100.00
46722;BME280;32455;43.430;23.136;2023-04-09T08:39:50;98682.59;;;7.75;100.00
46722;BME280;32455;43.430;23.136;2023-04-09T08:42:38;98674.31;;;7.70;100.00
46722;BME280;32455;43.430;23.136;2023-04-09T08:45:26;98672.41;;;7.64;100.00
46722;BME280;32455;43.430;23.136;2023-04-09T08:48:12;98665.22;;;7.65;100.00
46722;BME280;32455;43.430;23.136;2023-04-09T08:50:58;98670.88;;;7.76;100.00
46722;BME280;32455;43.430;23.136;2023-04-09T08:53:46;98685.88;;;7.99;100.00
46722;BME280;32455;43.430;23.136;2023-04-09T08:56:34;98675.91;;;7.86;100.00
46722;BME280;32455;43.430;23.136;2023-04-09T08:59:20;98663.88;;;7.75;100.00
46722;BME280;32455;43.430;23.136;2023-04-09T09:02:09;98682.19;;;8.00;100.00
46722;BME280;32455;43.430;23.136;2023-04-09T09:04:55;98660.66;;;7.87;100.00
46722;BME280;32455;43.430;23.136;2023-04-09T09:07:53;98667.06;;;8.14;100.00
46722;BME280;32455;43.430;23.136;2023-04-09T09:10:45;98678.09;;;8.04;100.00
46722;BME280;32455;43.430;23.136;2023-04-09T09:13:30;98658.66;;;7.67;100.00
46722;BME280;32455;43.430;23.136;2023-04-09T09:16:15;98667.91;;;8.14;100.00
46722;BME280;32455;43.430;23.136;2023-04-09T09:19:02;98653.56;;;8.28;100.00
46722;BME280;32455;43.430;23.136;2023-04-09T09:22:04;98664.03;;;7.95;100.00
46722;BME280;32455;43.430;23.136;2023-04-09T09:24:51;98649.69;;;8.03;100.00
46722;BME280;32455;43.430;23.136;2023-04-09T09:27:37;98657.84;;;7.95;100.00
46722;BME280;32455;43.430;23.136;2023-04-09T09:30:25;98663.56;;;8.41;100.00
46722;BME280;32455;43.430;23.136;2023-04-09T09:33:14;98661.78;;;8.48;100.00
46722;BME280;32455;43.430;23.136;2023-04-09T09:35:58;98648.66;;;8.67;100.00
46722;BME280;32455;43.430;23.136;2023-04-09T09:38:54;98661.31;;;8.86;100.00
46722;BME280;32455;43.430;23.136;2023-04-09T09:41:40;98654.16;;;8.52;100.00
46722;BME280;32455;43.430;23.136;2023-04-09T09:44:32;98664.00;;;8.80;100.00
46722;BME280;32455;43.430;23.136;2023-04-09T09:47:21;98638.84;;;8.81;100.00
46722;BME280;32455;43.430;23.136;2023-04-09T09:50:07;98658.59;;;9.21;100.00
46722;BME280;32455;43.430;23.136;2023-04-09T09:53:00;98641.84;;;9.12;100.00
46722;BME280;32455;43.430;23.136;2023-04-09T09:55:48;98657.34;;;9.23;100.00
46722;BME280;32455;43.430;23.136;2023-04-09T09:58:40;98635.59;;;8.92;100.00
46722;BME280;32455;43.430;23.136;2023-04-09T10:01:28;98649.03;;;9.12;100.00
46722;BME280;32455;43.430;23.136;2023-04-09T10:04:14;98632.88;;;8.85;100.00
46722;BME280;32455;43.430;23.136;2023-04-09T10:07:01;98660.81;;;9.11;100.00
46722;BME280;32455;43.430;23.136;2023-04-09T10:09:49;98650.47;;;9.08;100.00
46722;BME280;32455;43.430;23.136;2023-04-09T10:12:35;98650.69;;;9.06;100.00
46722;BME280;32455;43.430;23.136;2023-04-09T10:15:22;98645.75;;;9.16;100.00
46722;BME280;32455;43.430;23.136;2023-04-09T10:18:07;98636.38;;;8.86;100.00
46722;BME280;32455;43.430;23.136;2023-04-09T10:21:02;98652.50;;;8.92;100.00
46722;BME280;32455;43.430;23.136;2023-04-09T10:23:49;98632.97;;;8.57;100.00
46722;BME280;32455;43.430;23.136;2023-04-09T10:26:39;98625.88;;;8.43;100.00
46722;BME280;32455;43.430;23.136;2023-04-09T10:29:28;98645.63;;;8.76;100.00
46722;BME280;32455;43.430;23.136;2023-04-09T10:32:21;98651.81;;;8.77;100.00
46722;BME280;32455;43.430;23.136;2023-04-09T10:35:08;98661.09;;;8.81;100.00
46722;BME280;32455;43.430;23.136;2023-04-09T10:37:53;98642.97;;;8.83;100.00
46722;BME280;32455;43.430;23.136;2023-04-09T10:40:49;98637.91;;;8.60;100.00
46722;BME280;32455;43.430;23.136;2023-04-09T10:43:35;98649.28;;;8.69;100.00
46722;BME280;32455;43.430;23.136;2023-04-09T10:46:28;98646.88;;;8.81;100.00
46722;BME280;32455;43.430;23.136;2023-04-09T10:49:22;98631.13;;;8.64;100.00
46722;BME280;32455;43.430;23.136;2023-04-09T10:52:09;98629.47;;;8.57;100.00
46722;BME280;32455;43.430;23.136;2023-04-09T10:54:56;98643.09;;;8.62;100.00
46722;BME280;32455;43.430;23.136;2023-04-09T10:57:42;98648.44;;;8.62;100.00
46722;BME280;32455;43.430;23.136;2023-04-09T11:00:27;98630.84;;;8.18;100.00
46722;BME280;32455;43.430;23.136;2023-04-09T11:06:05;98633.44;;;8.67;100.00
46722;BME280;32455;43.430;23.136;2023-04-09T11:09:00;98630.03;;;8.87;100.00
46722;BME280;32455;43.430;23.136;2023-04-09T11:11:51;98640.53;;;8.47;100.00
46722;BME280;32455;43.430;23.136;2023-04-09T11:14:36;98649.16;;;8.84;100.00
46722;BME280;32455;43.430;23.136;2023-04-09T11:17:22;98627.69;;;8.70;100.00
46722;BME280;32455;43.430;23.136;2023-04-09T11:20:07;98625.56;;;8.59;100.00
46722;BME280;32455;43.430;23.136;2023-04-09T11:22:54;98642.31;;;8.74;100.00
46722;BME280;32455;43.430;23.136;2023-04-09T11:25:40;98629.97;;;8.80;100.00
46722;BME280;32455;43.430;23.136;2023-04-09T11:28:26;98624.13;;;8.63;100.00
46722;BME280;32455;43.430;23.136;2023-04-09T11:31:11;98646.94;;;8.94;100.00
46722;BME280;32455;43.430;23.136;2023-04-09T11:33:57;98647.00;;;9.14;100.00
46722;BME280;32455;43.430;23.136;2023-04-09T11:36:42;98627.53;;;8.85;100.00
46722;BME280;32455;43.430;23.136;2023-04-09T11:39:35;98624.63;;;8.80;100.00
46722;BME280;32455;43.430;23.136;2023-04-09T11:42:21;98617.00;;;8.84;100.00
46722;BME280;32455;43.430;23.136;2023-04-09T11:45:08;98620.06;;;8.39;100.00
46722;BME280;32455;43.430;23.136;2023-04-09T11:47:54;98611.59;;;8.36;100.00
46722;BME280;32455;43.430;23.136;2023-04-09T11:50:40;98632.38;;;8.62;100.00
46722;BME280;32455;43.430;23.136;2023-04-09T11:53:29;98618.13;;;8.55;100.00
46722;BME280;32455;43.430;23.136;2023-04-09T11:56:15;98622.38;;;8.42;100.00
46722;BME280;32455;43.430;23.136;2023-04-09T11:59:01;98615.03;;;8.23;100.00
46722;BME280;32455;43.430;23.136;2023-04-09T12:01:49;98607.97;;;8.15;100.00
46722;BME280;32455;43.430;23.136;2023-04-09T12:04:35;98608.09;;;8.35;100.00
46722;BME280;32455;43.430;23.136;2023-04-09T12:07:20;98611.03;;;8.40;100.00
46722;BME280;32455;43.430;23.136;2023-04-09T12:10:08;98602.69;;;8.63;100.00
46722;BME280;32455;43.430;23.136;2023-04-09T12:12:53;98622.19;;;8.44;100.00
46722;BME280;32455;43.430;23.136;2023-04-09T12:15:40;98616.69;;;8.59;100.00
46722;BME280;32455;43.430;23.136;2023-04-09T12:18:27;98602.78;;;8.83;100.00
46722;BME280;32455;43.430;23.136;2023-04-09T12:21:12;98600.91;;;8.77;100.00
46722;BME280;32455;43.430;23.136;2023-04-09T12:23:57;98612.31;;;8.99;100.00
46722;BME280;32455;43.430;23.136;2023-04-09T12:26:45;98598.56;;;8.61;100.00
46722;BME280;32455;43.430;23.136;2023-04-09T12:29:30;98591.66;;;8.38;100.00
46722;BME280;32455;43.430;23.136;2023-04-09T12:32:17;98596.09;;;8.59;100.00
46722;BME280;32455;43.430;23.136;2023-04-09T12:35:03;98574.50;;;8.33;100.00
46722;BME280;32455;43.430;23.136;2023-04-09T12:37:49;98592.31;;;8.47;100.00
46722;BME280;32455;43.430;23.136;2023-04-09T12:40:35;98594.22;;;8.60;100.00
46722;BME280;32455;43.430;23.136;2023-04-09T12:43:20;98593.34;;;8.46;100.00
46722;BME280;32455;43.430;23.136;2023-04-09T12:46:06;98583.53;;;8.25;100.00
46722;BME280;32455;43.430;23.136;2023-04-09T12:48:51;98576.09;;;8.20;100.00
46722;BME280;32455;43.430;23.136;2023-04-09T12:51:36;98595.03;;;8.19;100.00
46722;BME280;32455;43.430;23.136;2023-04-09T12:54:21;98596.84;;;8.12;100.00
46722;BME280;32455;43.430;23.136;2023-04-09T12:57:06;98597.13;;;8.23;100.00
46722;BME280;32455;43.430;23.136;2023-04-09T12:59:52;98586.47;;;8.02;100.00
46722;BME280;32455;43.430;23.136;2023-04-09T13:02:38;98571.78;;;7.91;100.00
46722;BME280;32455;43.430;23.136;2023-04-09T13:05:23;98588.13;;;8.03;100.00
46722;BME280;32455;43.430;23.136;2023-04-09T13:08:08;98572.88;;;7.97;100.00
46722;BME280;32455;43.430;23.136;2023-04-09T13:10:54;98592.50;;;8.11;100.00
46722;BME280;32455;43.430;23.136;2023-04-09T13:13:40;98583.59;;;8.03;100.00
46722;BME280;32455;43.430;23.136;2023-04-09T13:16:25;98582.72;;;7.96;100.00
46722;BME280;32455;43.430;23.136;2023-04-09T13:19:11;98572.97;;;8.17;100.00
46722;BME280;32455;43.430;23.136;2023-04-09T13:21:56;98578.59;;;8.28;100.00
46722;BME280;32455;43.430;23.136;2023-04-09T13:24:42;98583.88;;;8.15;100.00
46722;BME280;32455;43.430;23.136;2023-04-09T13:27:27;98561.13;;;7.98;100.00
46722;BME280;32455;43.430;23.136;2023-04-09T13:30:12;98570.59;;;7.94;100.00
46722;BME280;32455;43.430;23.136;2023-04-09T13:32:58;98564.44;;;8.00;100.00
46722;BME280;32455;43.430;23.136;2023-04-09T13:35:43;98570.94;;;8.19;100.00
46722;BME280;32455;43.430;23.136;2023-04-09T13:38:29;98557.66;;;8.04;100.00
46722;BME280;32455;43.430;23.136;2023-04-09T13:41:14;98554.44;;;7.81;100.00
46722;BME280;32455;43.430;23.136;2023-04-09T13:43:59;98570.03;;;8.05;100.00
46722;BME280;32455;43.430;23.136;2023-04-09T13:46:45;98563.00;;;7.97;100.00
46722;BME280;32455;43.430;23.136;2023-04-09T13:49:29;98566.19;;;8.21;100.00
46722;BME280;32455;43.430;23.136;2023-04-09T13:52:15;98554.72;;;8.27;100.00
46722;BME280;32455;43.430;23.136;2023-04-09T13:55:00;98550.56;;;8.24;100.00
46722;BME280;32455;43.430;23.136;2023-04-09T13:57:46;98541.94;;;8.29;100.00
46722;BME280;32455;43.430;23.136;2023-04-09T14:00:32;98535.25;;;8.05;100.00
46722;BME280;32455;43.430;23.136;2023-04-09T14:03:18;98520.47;;;8.16;100.00
46722;BME280;32455;43.430;23.136;2023-04-09T14:06:03;98538.16;;;8.10;100.00
46722;BME280;32455;43.430;23.136;2023-04-09T14:08:49;98543.88;;;8.42;100.00
46722;BME280;32455;43.430;23.136;2023-04-09T14:11:35;98522.31;;;8.15;100.00
46722;BME280;32455;43.430;23.136;2023-04-09T14:14:20;98547.50;;;8.27;100.00
46722;BME280;32455;43.430;23.136;2023-04-09T14:17:05;98544.78;;;8.14;100.00
46722;BME280;32455;43.430;23.136;2023-04-09T14:19:51;98555.69;;;8.19;100.00
46722;BME280;32455;43.430;23.136;2023-04-09T14:22:36;98542.88;;;8.08;100.00
46722;BME280;32455;43.430;23.136;2023-04-09T14:25:22;98549.59;;;8.32;100.00
46722;BME280;32455;43.430;23.136;2023-04-09T14:28:07;98544.75;;;8.49;100.00
46722;BME280;32455;43.430;23.136;2023-04-09T14:30:53;98528.03;;;8.47;100.00
46722;BME280;32455;43.430;23.136;2023-04-09T14:33:39;98539.84;;;8.52;100.00
46722;BME280;32455;43.430;23.136;2023-04-09T14:36:25;98525.78;;;8.50;100.00
46722;BME280;32455;43.430;23.136;2023-04-09T14:39:11;98511.22;;;8.18;100.00